createdAt,value
2019-05-29T00:01:10.604Z,10.75
2019-05-29T00:03:37.273Z,11.05
2019-05-29T00:06:06.188Z,13.10
2019-05-29T00:08:35.367Z,14.78
2019-05-29T00:11:03.817Z,13.40
2019-05-29T00:13:32.296Z,13.20
2019-05-29T00:16:01.104Z,13.50
2019-05-29T00:18:29.587Z,13.10
2019-05-29T00:20:58.042Z,13.62
2019-05-29T00:23:26.552Z,12.68
2019-05-29T00:25:55.081Z,13.85
2019-05-29T00:28:23.538Z,13.08
2019-05-29T00:30:52.089Z,13.78
2019-05-29T00:33:20.559Z,13.10
2019-05-29T00:35:49.132Z,12.82
2019-05-29T00:38:17.614Z,13.00
2019-05-29T00:40:46.093Z,12.15
2019-05-29T00:43:15.458Z,14.38
2019-05-29T00:45:44.328Z,12.00
2019-05-29T00:48:13.988Z,12.85
2019-05-29T00:50:42.773Z,15.45
2019-05-29T00:53:12.150Z,15.48
2019-05-29T00:55:41.810Z,14.00
2019-05-29T00:58:10.748Z,13.75
2019-05-29T01:00:39.399Z,12.90
2019-05-29T01:03:07.929Z,16.67
2019-05-29T01:05:36.403Z,13.38
2019-05-29T01:08:05.334Z,15.88
2019-05-29T01:10:33.793Z,13.60
2019-05-29T01:13:02.284Z,12.95
2019-05-29T01:15:30.738Z,15.93
2019-05-29T01:17:59.303Z,18.07
2019-05-29T01:20:28.029Z,16.10
2019-05-29T01:22:56.561Z,14.78
2019-05-29T01:25:25.042Z,15.38
2019-05-29T01:27:53.508Z,16.55
2019-05-29T01:30:23.301Z,14.47
2019-05-29T01:32:52.083Z,14.47
2019-05-29T01:35:20.548Z,16.52
2019-05-29T01:37:49.106Z,15.23
2019-05-29T01:40:22.946Z,16.30
2019-05-29T01:42:49.939Z,16.30
2019-05-29T01:45:18.032Z,15.58
2019-05-29T01:47:46.517Z,16.57
2019-05-29T01:50:15.573Z,17.65
2019-05-29T01:52:46.408Z,15.85
2019-05-29T01:55:15.730Z,17.40
2019-05-29T01:57:44.611Z,17.27
2019-05-29T02:00:15.714Z,18.77
2019-05-29T02:02:44.478Z,15.60
2019-05-29T02:05:13.187Z,15.50
2019-05-29T02:07:41.975Z,15.45
2019-05-29T02:10:10.576Z,20.08
2019-05-29T02:12:39.130Z,18.07
2019-05-29T02:15:23.078Z,21.02
2019-05-29T02:17:40.296Z,20.30
2019-05-29T02:20:09.524Z,18.77
2019-05-29T02:22:38.119Z,19.15
2019-05-29T02:25:10.408Z,20.25
2019-05-29T02:27:38.879Z,21.55
2019-05-29T02:30:08.484Z,18.77
2019-05-29T02:32:37.407Z,18.90
2019-05-29T02:35:06.917Z,18.25
2019-05-29T02:37:35.471Z,16.50
2019-05-29T02:40:07.008Z,16.17
2019-05-29T02:42:36.161Z,15.48
2019-05-29T02:45:08.099Z,17.15
2019-05-29T02:47:36.710Z,16.07
2019-05-29T02:50:07.920Z,15.03
2019-05-29T02:52:36.377Z,15.88
2019-05-29T02:55:07.692Z,15.55
2019-05-29T02:57:36.232Z,17.15
2019-05-29T03:00:06.745Z,16.55
2019-05-29T03:02:35.228Z,18.25
2019-05-29T03:05:05.925Z,19.80
2019-05-29T03:07:35.129Z,16.75
2019-05-29T03:10:08.437Z,18.87
2019-05-29T03:12:37.716Z,16.85
2019-05-29T03:15:06.917Z,18.48
2019-05-29T03:17:35.385Z,18.67
2019-05-29T03:20:08.445Z,17.70
2019-05-29T03:22:37.203Z,18.53
2019-05-29T03:25:07.309Z,16.32
2019-05-29T03:27:35.990Z,17.30
2019-05-29T03:30:06.482Z,15.70
2019-05-29T03:32:45.650Z,15.60
2019-05-29T03:35:06.750Z,18.67
2019-05-29T03:37:35.245Z,17.87
2019-05-29T03:40:08.999Z,18.57
2019-05-29T03:42:38.979Z,18.92
2019-05-29T03:45:08.268Z,18.70
2019-05-29T03:47:37.239Z,17.30
2019-05-29T03:50:07.444Z,15.18
2019-05-29T03:52:36.001Z,14.98
2019-05-29T03:55:06.970Z,16.50
2019-05-29T03:57:35.870Z,14.80
2019-05-29T04:00:08.075Z,14.78
2019-05-29T04:02:38.222Z,16.00
2019-05-29T04:05:07.285Z,15.70
2019-05-29T04:07:37.776Z,16.35
2019-05-29T04:10:08.010Z,17.35
2019-05-29T04:12:38.052Z,16.65
2019-05-29T04:15:07.583Z,17.32
2019-05-29T04:17:38.373Z,17.73
2019-05-29T04:20:07.433Z,19.17
2019-05-29T04:22:39.074Z,17.20
2019-05-29T04:25:08.340Z,17.12
2019-05-29T04:27:39.805Z,16.73
2019-05-29T04:30:09.242Z,17.10
2019-05-29T04:32:38.601Z,16.70
2019-05-29T04:35:09.168Z,17.62
2019-05-29T04:37:39.910Z,17.25
2019-05-29T04:40:08.754Z,18.80
2019-05-29T04:42:38.160Z,16.12
2019-05-29T04:45:09.210Z,18.15
2019-05-29T04:47:39.321Z,18.80
2019-05-29T04:50:08.622Z,19.73
2019-05-29T04:52:37.900Z,16.42
2019-05-29T04:55:08.048Z,16.07
2019-05-29T04:57:37.225Z,15.32
2019-05-29T05:00:07.212Z,15.15
2019-05-29T05:02:35.729Z,13.98
2019-05-29T05:05:07.850Z,13.88
2019-05-29T05:07:37.344Z,13.10
2019-05-29T05:10:07.606Z,13.22
2019-05-29T05:12:37.863Z,11.75
2019-05-29T05:15:07.672Z,12.60
2019-05-29T05:17:36.196Z,12.37
2019-05-29T05:20:05.977Z,10.63
2019-05-29T05:22:34.589Z,12.07
2019-05-29T05:25:03.798Z,11.78
2019-05-29T05:27:32.290Z,11.68
2019-05-29T05:30:00.769Z,11.05
2019-05-29T05:32:30.495Z,10.88
2019-05-29T05:34:59.152Z,10.23
2019-05-29T05:37:27.653Z,8.78
2019-05-29T05:39:56.142Z,8.43
2019-05-29T05:42:24.876Z,8.53
2019-05-29T05:44:53.429Z,7.35
2019-05-29T05:47:21.941Z,8.10
2019-05-29T05:49:50.419Z,7.60
2019-05-29T05:52:18.900Z,7.50
2019-05-29T05:54:47.434Z,8.33
2019-05-29T05:57:15.926Z,8.13
2019-05-29T05:59:44.411Z,7.83
2019-05-29T06:02:12.962Z,8.10
2019-05-29T06:04:42.128Z,8.53
2019-05-29T06:07:10.767Z,8.65
2019-05-29T06:09:40.434Z,8.93
2019-05-29T06:12:08.963Z,8.33
2019-05-29T06:14:38.466Z,8.40
2019-05-29T06:17:07.209Z,8.98
2019-05-29T06:19:36.729Z,8.38
2019-05-29T06:22:05.854Z,8.63
2019-05-29T06:24:34.981Z,8.73
2019-05-29T06:27:03.878Z,8.90
2019-05-29T06:29:33.514Z,8.68
2019-05-29T06:32:02.375Z,9.80
2019-05-29T06:34:30.932Z,10.65
2019-05-29T06:36:59.500Z,10.78
2019-05-29T06:39:27.965Z,9.43
2019-05-29T06:41:56.461Z,10.03
2019-05-29T06:44:25.333Z,9.78
2019-05-29T06:46:56.936Z,9.93
2019-05-29T06:49:27.339Z,10.25
2019-05-29T06:51:55.817Z,10.38
2019-05-29T06:54:24.311Z,9.98
2019-05-29T06:56:52.830Z,9.45
2019-05-29T06:59:21.589Z,9.45
2019-05-29T07:01:50.128Z,9.83
2019-05-29T07:04:18.605Z,10.28
2019-05-29T07:06:47.099Z,9.50
2019-05-29T07:09:15.814Z,9.55
2019-05-29T07:11:45.416Z,9.53
2019-05-29T07:14:14.050Z,9.13
2019-05-29T07:16:49.820Z,10.08
2019-05-29T07:19:47.097Z,10.40
2019-05-29T07:21:43.407Z,10.50
2019-05-29T07:24:13.194Z,10.53
2019-05-29T07:26:43.082Z,11.70
2019-05-29T07:29:11.960Z,10.70
2019-05-29T07:31:42.934Z,10.28
2019-05-29T07:34:11.541Z,10.63
2019-05-29T07:36:40.072Z,10.93
2019-05-29T07:39:08.589Z,11.40
2019-05-29T07:41:37.442Z,10.43
2019-05-29T07:44:06.282Z,9.70
2019-05-29T07:46:35.026Z,9.95
2019-05-29T07:49:03.915Z,10.50
2019-05-29T07:51:32.726Z,9.93
2019-05-29T07:54:01.185Z,9.63
2019-05-29T07:56:31.493Z,9.73
2019-05-29T07:59:02.944Z,8.00
2019-05-29T08:01:30.630Z,9.90
2019-05-29T08:03:59.376Z,9.10
2019-05-29T08:06:27.971Z,8.18
2019-05-29T08:08:56.549Z,8.30
2019-05-29T08:11:25.140Z,8.38
2019-05-29T08:13:53.771Z,9.60
2019-05-29T08:16:24.456Z,7.70
2019-05-29T08:18:53.275Z,8.10
2019-05-29T08:21:21.986Z,6.47
2019-05-29T08:23:50.839Z,7.10
2019-05-29T08:26:19.594Z,6.95
2019-05-29T08:28:48.917Z,6.33
2019-05-29T08:31:17.965Z,8.20
2019-05-29T08:33:46.814Z,9.15
2019-05-29T08:36:15.437Z,9.33
2019-05-29T08:38:45.735Z,7.90
2019-05-29T08:41:14.577Z,8.73
2019-05-29T08:43:44.811Z,9.93
2019-05-29T08:46:13.340Z,11.33
2019-05-29T08:48:41.895Z,10.90
2019-05-29T08:51:10.454Z,12.07
2019-05-29T08:53:38.927Z,11.03
2019-05-29T08:56:07.750Z,13.78
2019-05-29T08:58:37.386Z,13.98
2019-05-29T09:01:06.511Z,12.73
2019-05-29T09:03:35.386Z,15.60
2019-05-29T09:06:08.937Z,15.85
2019-05-29T09:08:34.213Z,19.02
2019-05-29T09:11:02.846Z,17.95
2019-05-29T09:13:31.759Z,17.62
2019-05-29T09:16:00.245Z,17.82
2019-05-29T09:18:28.726Z,16.73
2019-05-29T09:21:03.188Z,16.00
2019-05-29T09:23:27.532Z,15.63
2019-05-29T09:26:13.236Z,14.53
2019-05-29T09:28:25.146Z,15.98
2019-05-29T09:30:53.680Z,16.10
2019-05-29T09:33:23.537Z,11.15
2019-05-29T09:35:52.449Z,11.18
2019-05-29T09:38:21.025Z,12.37
2019-05-29T09:40:52.577Z,11.30
2019-05-29T09:43:19.912Z,12.45
2019-05-29T09:45:50.735Z,13.35
2019-05-29T09:48:23.403Z,13.95
2019-05-29T09:50:50.855Z,12.65
2019-05-29T09:53:19.597Z,10.30
2019-05-29T09:55:48.088Z,9.75
2019-05-29T09:58:16.634Z,8.40
2019-05-29T10:00:45.912Z,9.28
2019-05-29T10:03:14.373Z,8.20
2019-05-29T10:05:43.137Z,8.88
2019-05-29T10:08:11.658Z,8.45
2019-05-29T10:10:40.162Z,10.13
2019-05-29T10:13:08.690Z,8.33
2019-05-29T10:15:37.223Z,8.50
2019-05-29T10:18:10.006Z,7.55
2019-05-29T10:20:36.224Z,7.37
2019-05-29T10:23:05.201Z,9.83
2019-05-29T10:25:33.742Z,6.20
2019-05-29T10:28:05.838Z,5.10
2019-05-29T10:30:32.499Z,6.90
2019-05-29T10:33:01.024Z,9.43
2019-05-29T10:35:29.588Z,10.08
2019-05-29T10:37:58.128Z,10.53
2019-05-29T10:40:26.591Z,10.55
2019-05-29T10:42:55.118Z,11.05
2019-05-29T10:45:23.742Z,12.33
2019-05-29T10:47:52.453Z,13.00
2019-05-29T10:50:23.698Z,13.05
2019-05-29T10:52:52.253Z,12.45
2019-05-29T10:55:22.995Z,12.75
2019-05-29T10:57:53.120Z,12.28
2019-05-29T11:00:22.388Z,12.63
2019-05-29T11:02:53.475Z,10.70
2019-05-29T11:05:21.170Z,11.93
2019-05-29T11:07:49.749Z,10.43
2019-05-29T11:10:18.462Z,8.45
2019-05-29T11:12:48.309Z,7.35
2019-05-29T11:15:21.760Z,9.90
2019-05-29T11:17:49.172Z,8.80
2019-05-29T11:20:19.428Z,8.50
2019-05-29T11:22:47.908Z,12.07
2019-05-29T11:25:23.593Z,12.15
2019-05-29T11:27:48.414Z,13.00
2019-05-29T11:30:17.440Z,10.15
2019-05-29T11:32:47.673Z,10.75
2019-05-29T11:35:16.695Z,9.88
2019-05-29T11:37:45.175Z,8.93
2019-05-29T11:40:14.182Z,10.63
2019-05-29T11:42:42.655Z,10.55
2019-05-29T11:45:12.279Z,9.70
2019-05-29T11:47:40.838Z,10.82
2019-05-29T11:50:19.346Z,11.33
2019-05-29T11:52:43.852Z,9.78
2019-05-29T11:55:14.445Z,12.15
2019-05-29T11:57:43.032Z,8.13
2019-05-29T12:00:20.308Z,9.58
2019-05-29T12:02:45.218Z,8.58
2019-05-29T12:05:15.543Z,10.85
2019-05-29T12:07:44.151Z,10.95
2019-05-29T12:10:17.197Z,8.95
2019-05-29T12:15:17.921Z,8.90
2019-05-29T12:17:45.421Z,7.17
2019-05-29T12:20:27.017Z,6.97
2019-05-29T12:23:11.143Z,7.60
2019-05-29T12:25:15.190Z,7.15
2019-05-29T12:27:52.610Z,7.42
2019-05-29T12:30:19.099Z,7.00
2019-05-29T12:32:47.633Z,6.47
2019-05-29T12:35:16.355Z,7.12
2019-05-29T12:37:44.843Z,6.72
2019-05-29T12:40:13.716Z,6.97
2019-05-29T12:42:44.935Z,6.28
2019-05-29T12:45:14.504Z,5.65
2019-05-29T12:47:43.090Z,5.58
2019-05-29T12:50:13.130Z,5.65
2019-05-29T12:52:42.300Z,5.67
2019-05-29T12:55:12.407Z,6.47
2019-05-29T12:57:40.932Z,5.37
2019-05-29T13:00:11.656Z,6.05
2019-05-29T13:02:42.428Z,6.67
2019-05-29T13:05:19.319Z,6.25
2019-05-29T13:07:45.161Z,5.03
2019-05-29T13:10:29.424Z,5.50
2019-05-29T13:12:45.588Z,6.17
2019-05-29T13:15:15.665Z,6.65
2019-05-29T13:17:44.437Z,6.22
2019-05-29T13:20:21.818Z,5.58
2019-05-29T13:22:45.630Z,5.45
2019-05-29T13:25:14.592Z,5.08
2019-05-29T13:27:43.224Z,6.10
2019-05-29T13:30:14.147Z,7.12
2019-05-29T13:32:44.325Z,6.10
2019-05-29T13:35:14.175Z,7.15
2019-05-29T13:37:43.849Z,6.78
2019-05-29T13:40:14.170Z,6.80
2019-05-29T13:42:44.292Z,6.37
2019-05-29T13:45:18.110Z,6.65
2019-05-29T13:47:46.870Z,5.50
2019-05-29T13:50:18.178Z,5.10
2019-05-29T13:52:48.330Z,5.97
2019-05-29T13:55:17.250Z,5.62
2019-05-29T13:57:46.982Z,5.17
2019-05-29T14:00:32.619Z,4.97
2019-05-29T14:02:48.162Z,5.45
2019-05-29T14:05:18.031Z,4.60
2019-05-29T14:07:47.851Z,4.30
2019-05-29T14:10:21.114Z,4.60
2019-05-29T14:59:26.376Z,1.77
2019-05-29T15:01:59.739Z,1.77
2019-05-29T15:04:28.351Z,1.50
2019-05-29T15:06:56.954Z,1.37
2019-05-29T15:09:25.489Z,1.40
2019-05-29T15:11:54.115Z,1.32
2019-05-29T15:14:22.777Z,1.70
2019-05-29T15:16:51.736Z,2.00
2019-05-29T15:19:20.289Z,1.90
2019-05-29T15:21:48.906Z,2.17
2019-05-29T15:24:17.568Z,1.87
2019-05-29T15:26:46.477Z,1.60
2019-05-29T15:29:17.924Z,1.72
2019-05-29T15:31:45.444Z,1.85
2019-05-29T15:34:14.447Z,2.00
2019-05-29T15:36:43.279Z,2.77
2019-05-29T15:39:14.501Z,1.90
2019-05-29T15:41:43.322Z,1.60
2019-05-29T15:44:12.808Z,2.12
2019-05-29T15:46:41.464Z,1.80
2019-05-29T15:49:13.088Z,1.72
2019-05-29T15:51:41.755Z,2.10
2019-05-29T15:54:11.170Z,2.08
2019-05-29T15:56:40.159Z,1.60
2019-05-29T15:59:09.959Z,1.85
2019-05-29T16:01:39.264Z,1.40
2019-05-29T16:04:09.508Z,1.65
2019-05-29T16:06:43.639Z,1.85
2019-05-29T16:09:14.337Z,1.98
2019-05-29T16:11:43.108Z,1.77
2019-05-29T16:14:12.907Z,1.90
2019-05-29T16:16:41.531Z,1.90
2019-05-29T16:19:10.102Z,1.57
2019-05-29T16:21:38.704Z,1.60
2019-05-29T16:24:07.362Z,1.62
2019-05-29T16:27:07.971Z,1.70
2019-05-29T16:29:10.452Z,1.70
2019-05-29T16:31:41.944Z,1.50
2019-05-29T16:34:12.192Z,1.40
2019-05-29T16:36:40.926Z,1.50
2019-05-29T16:39:09.545Z,1.60
2019-05-29T16:41:38.501Z,1.30
2019-05-29T16:44:07.199Z,1.40
2019-05-29T16:46:35.691Z,1.20
2019-05-29T16:49:04.520Z,1.30
2019-05-29T16:51:33.072Z,1.60
2019-05-29T16:54:01.645Z,1.62
2019-05-29T16:56:30.133Z,1.50
2019-05-29T16:58:58.791Z,1.52
2019-05-29T17:01:27.524Z,1.70
2019-05-29T17:03:56.311Z,1.67
2019-05-29T17:06:24.869Z,1.72
2019-05-29T17:08:53.486Z,1.60
2019-05-29T17:11:23.539Z,1.77
2019-05-29T17:13:52.515Z,1.65
2019-05-29T17:16:22.723Z,1.60
2019-05-29T17:18:51.446Z,2.33
2019-05-29T17:21:22.784Z,1.92
2019-05-29T17:23:50.518Z,1.85
2019-05-29T17:26:20.837Z,2.10
2019-05-29T17:28:49.613Z,2.20
2019-05-29T17:31:20.881Z,2.55
2019-05-29T17:33:48.616Z,1.77
2019-05-29T17:36:17.424Z,2.00
2019-05-29T17:38:46.090Z,2.10
2019-05-29T17:41:15.274Z,2.10
2019-05-29T17:43:43.840Z,2.20
2019-05-29T17:46:15.303Z,2.62
2019-05-29T17:48:44.047Z,3.10
2019-05-29T17:51:12.621Z,2.70
2019-05-29T17:53:41.198Z,2.20
2019-05-29T17:56:23.325Z,3.15
2019-05-29T17:58:40.275Z,3.00
2019-05-29T18:01:08.899Z,2.50
2019-05-29T18:03:37.423Z,2.80
2019-05-29T18:06:06.163Z,2.50
2019-05-29T18:08:37.623Z,3.05
2019-05-29T18:11:06.244Z,2.87
2019-05-29T18:13:34.782Z,3.15
2019-05-29T18:16:03.306Z,2.65
2019-05-29T18:18:31.829Z,2.70
2019-05-29T18:21:00.407Z,2.65
2019-05-29T18:23:29.234Z,2.42
2019-05-29T18:25:57.799Z,2.80
2019-05-29T18:28:26.273Z,2.60
2019-05-29T18:30:55.131Z,2.70
2019-05-29T18:33:24.935Z,3.20
2019-05-29T18:35:53.670Z,2.55
2019-05-29T18:38:22.422Z,3.10
2019-05-29T18:40:51.019Z,2.50
2019-05-29T18:43:20.373Z,3.37
2019-05-29T18:45:49.024Z,3.12
2019-05-29T18:48:17.906Z,3.02
2019-05-29T18:50:46.662Z,2.80
2019-05-29T18:53:16.952Z,2.90
2019-05-29T18:55:45.638Z,3.45
2019-05-29T18:58:16.726Z,3.10
2019-05-29T19:00:47.177Z,3.20
2019-05-29T19:03:23.335Z,2.72
2019-05-29T19:05:56.265Z,3.05
2019-05-29T19:08:25.748Z,3.20
2019-05-29T19:10:57.192Z,3.30
2019-05-29T19:13:28.000Z,3.12
2019-05-29T19:15:58.210Z,3.05
2019-05-29T19:18:33.755Z,2.95
2019-05-29T19:20:59.239Z,3.17
2019-05-29T19:23:28.768Z,2.40
2019-05-29T19:25:57.414Z,2.67
2019-05-29T19:28:26.525Z,2.45
2019-05-29T19:30:55.467Z,2.58
2019-05-29T19:33:25.162Z,2.90
2019-05-29T19:35:53.843Z,2.60
2019-05-29T19:38:23.657Z,2.47
2019-05-29T19:40:52.612Z,2.70
2019-05-29T19:43:21.209Z,2.90
2019-05-29T19:45:49.700Z,2.67
2019-05-29T19:48:18.295Z,2.90
2019-05-29T19:50:48.685Z,2.58
2019-05-29T19:53:17.285Z,2.90
2019-05-29T19:55:45.945Z,3.05
2019-05-29T19:58:17.676Z,2.75
2019-05-29T20:00:46.217Z,3.00
2019-05-29T20:03:14.800Z,2.95
2019-05-29T20:05:43.512Z,3.60
2019-05-29T20:08:12.146Z,3.50
2019-05-29T20:10:40.719Z,3.08
2019-05-29T20:13:09.405Z,3.15
2019-05-29T20:15:38.145Z,3.10
2019-05-29T20:18:09.247Z,3.33
2019-05-29T20:20:38.729Z,3.20
2019-05-29T20:23:09.004Z,3.20
2019-05-29T20:25:39.043Z,3.90
2019-05-29T20:28:11.642Z,3.05
2019-05-29T20:30:38.731Z,3.33
2019-05-29T20:33:09.341Z,3.70
2019-05-29T20:35:40.559Z,3.37
2019-05-29T20:38:09.110Z,3.40
2019-05-29T20:40:37.742Z,3.60
2019-05-29T20:43:08.542Z,3.15
2019-05-29T20:45:37.634Z,3.58
2019-05-29T20:48:10.094Z,3.30
2019-05-29T20:50:39.127Z,3.47
2019-05-29T20:53:07.790Z,3.42
2019-05-29T20:55:36.268Z,3.58
2019-05-29T20:58:23.188Z,3.35
2019-05-29T21:00:44.267Z,3.65
2019-05-29T21:03:15.534Z,3.12
2019-05-29T21:05:44.020Z,3.25
2019-05-29T21:08:12.544Z,3.47
2019-05-29T21:10:42.019Z,3.20
2019-05-29T21:13:10.962Z,3.60
2019-05-29T21:15:43.753Z,3.40
2019-05-29T21:18:12.356Z,3.33
2019-05-29T21:20:42.523Z,3.10
2019-05-29T21:23:11.286Z,3.45
2019-05-29T21:25:40.714Z,3.58
2019-05-29T21:28:09.347Z,3.20
2019-05-29T21:30:37.899Z,2.95
2019-05-29T21:33:16.100Z,2.98
2019-05-29T21:35:44.656Z,3.25
2019-05-29T21:38:13.212Z,2.90
2019-05-29T21:40:44.550Z,3.45
2019-05-29T21:43:12.016Z,3.02
2019-05-29T21:45:41.045Z,2.70
2019-05-29T21:48:09.697Z,2.98
2019-05-29T21:50:39.107Z,2.70
2019-05-29T21:53:07.967Z,2.92
2019-05-29T21:55:39.511Z,2.55
2019-05-29T21:58:10.277Z,3.00
2019-05-29T22:00:49.131Z,2.67
2019-05-29T22:03:17.658Z,2.55
2019-05-29T22:05:46.814Z,2.60
2019-05-29T22:08:15.530Z,2.70
2019-05-29T22:10:44.522Z,2.80
2019-05-29T22:13:13.511Z,2.47
2019-05-29T22:15:42.073Z,3.08
2019-05-29T22:18:10.623Z,2.70
2019-05-29T22:20:39.346Z,2.58
2019-05-29T22:23:07.828Z,2.83
2019-05-29T22:28:15.727Z,2.27
2019-05-29T22:30:44.314Z,2.60
2019-05-29T22:33:12.780Z,2.30
2019-05-29T22:35:41.367Z,2.35
2019-05-29T22:38:09.951Z,2.20
2019-05-29T22:40:38.536Z,2.27
2019-05-29T22:43:07.424Z,1.80
2019-05-29T22:45:36.317Z,2.25
2019-05-29T22:48:04.975Z,2.05
2019-05-29T22:50:33.550Z,2.30
2019-05-29T22:53:02.197Z,2.02
2019-05-29T22:55:32.530Z,2.40
2019-05-29T22:58:02.114Z,2.17
2019-05-29T23:00:30.887Z,2.10
2019-05-29T23:03:00.190Z,2.10
2019-05-29T23:05:28.840Z,1.87
2019-05-29T23:07:58.234Z,2.02
2019-05-29T23:10:27.060Z,2.10
2019-05-29T23:12:56.392Z,2.00
2019-05-29T23:15:24.931Z,2.40
2019-05-29T23:17:54.534Z,2.50
2019-05-29T23:20:23.209Z,2.05
2019-05-29T23:22:52.594Z,2.58
2019-05-29T23:25:21.287Z,2.40
2019-05-29T23:27:49.780Z,2.55
2019-05-29T23:30:18.430Z,2.75
2019-05-29T23:32:46.989Z,2.80
2019-05-29T23:35:15.921Z,2.98
2019-05-29T23:37:44.428Z,3.17
2019-05-29T23:40:13.089Z,3.10
2019-05-29T23:42:41.578Z,3.17
2019-05-29T23:45:11.044Z,2.98
2019-05-29T23:47:39.599Z,3.20
2019-05-29T23:50:09.407Z,3.42
2019-05-29T23:52:38.329Z,3.70
2019-05-29T23:55:10.375Z,3.62
2019-05-29T23:57:39.027Z,4.00
